ORMM/BSR METAR and TAF weather

Enter ICAO airport designator
Station Type Date Time Source
ORMM METAR 2022/06/26 07:00 UTC NOAA

ORMM 260700Z 30012KT 0500 DS NSC 39/12 Q1001 NOSIG


Station Type Date Time Source
ORMM Decoded METAR 2022/06/26 07:00 UTC NOAA

Station name not available
Jun 26, 2022 - 03:00 AM EDT / 2022.06.26 0700 UTC
Wind: from the WNW (300 degrees) at 14 MPH (12 KT):0
Visibility: less than 1 mile:0
Weather: duststorm
Temperature: 102 F (39 C)
Heat index: 100.0 F (37.8 C):1
Dew Point: 53 F (12 C)
Relative Humidity: 20%
Pressure (altimeter): 29.56 in. Hg (1001 hPa)
ob: ORMM 260700Z 30012KT 0500 DS NSC 39/12 Q1001 NOSIG
cycle: 7

Station Type Date Time Source
ORMM TAF 2022/06/26 06:09 UTC NOAA

TAF TAF ORMM 260400Z 2606/2706 30016KT 0800 DS NSC
BECMG 2608/2610 30012KT 3000 BLDU
BECMG 2612/2614 28020KT 6000

Example: see airport list